KAZO

Kalamazoo/Battle Creek International Airport

Airport
ICAO code
KAZO
IATA Code
AZO
Summary
ICAO Region
NAM
ICAO Territory
Location

Kalamazoo, Michigan

Serving
Kalamazoo
Elevation
874 ft
Coordinates
42° 14' 2" N , 85° 33' 3" W
KCC
Airport CFIT
Altimeter Temperature Error Correction
Metar
KAZO 191120Z 32013KT 10SM OVC032 07/03 A3000 RMK AO2 T00720033

Kalamazoo/Battle Creek International Airport is a public use airport located 3 nm southeast of the central business district of Kalamazoo, a city in Kalamazoo County, Michigan, USA. The airport is also serves the nearby city of Battle Creek.

Airport map

Aerial View

SKYbrary Partners:

Safety knowledge contributed by: